El Paso, IL

4:23 PM CST on December 17, 2014 (GMT -0600)
North West corner of El Paso IL | Change Station
CLOSE
Current Station
Personal Weather Station
Location: El Paso, IL
Elevation: 738 ft
Nearby Weather Stations

Elev 738 ft 40.74 °N, 89.02 °W | Updated 9 minutes ago

Overcast
Overcast
25.0 °F
Feels Like 15 °F
N
9.8
Wind Variable Wind from West

Today
High -- | Low -- °F
--% Chance of Precip.
Yesterday
High -- | Low -- °F
Precip. -- in
7:14 AM 4:30 PM
Waning Crescent, 19% visible
Pressure 30.34 in
Visibility 10.0 miles
Clouds Mostly Cloudy 1500 ft
Windchill 15 °F
Dew Point 20 °F
Humidity 82%
Rainfall 0.00 in
Snow Depth Not available.
UV 0 out of 12
Pollen .10 out of 12
Air Quality Not available.
Flu Activity Not available.
METAR KBMI 172156Z 30006KT 10SM BKN015 M04/M07 A3027 RMK AO2 T10381072 SLP273

More Conditions Fewer Conditions

Pressure 30.34 in
Visibility 10.0 miles
Clouds Mostly Cloudy 1500 ft
Windchill 15 °F
Dew Point 20 °F
Humidity 82%
Rainfall 0.00 in
Snow Depth Not available.
UV 0 out of 12
Pollen .10 out of 12
Air Quality Not available.
Flu Activity Not available.
METAR KBMI 172156Z 30006KT 10SM BKN015 M04/M07 A3027 RMK AO2 T10381072 SLP273

More Conditions Fewer Conditions

10-Day Weather Forecast

Almanac

Astronomy

Dec. 17, 2014 Rise Set
Actual Time
Civil Twilight
Nautical Twilight
Astronomical Twilight
Moon
Length of Visible Light
Length of Day
Tomorrow will be .
, % of the Moon is Illuminated

Today's Extremes

State Highs State Lows

Community

WunderPhotos

Upload Photos

1,778,811 photos uploaded!

WunderBlogs® & News

Nearby

Air Quality

  Air Quality AQ Index Pollutant
Not available.

Snow Depth

Station Depth Elevation

Earthquake Activity

City Distance Mag. Time & Date
Minimum magnitude displayed is 2.5.

Coastal Water Temperatures

Place Temperature

Nearby Weather Stations